Time;durP1;ratioP1;P1;durP2;ratioP2;P2;SDS_P1;SDS_P2;PMS_P1;PMS_P2;Temp;Humidity;BMP_temperature;BMP_pressure;BME280_temperature;BME280_humidity;BME280_pressure;Samples;Min_cycle;Max_cycle;Signal;HPM_P1;HPM_P2
2022/03/14 00:01:36;;;;;;;8.03;7.30;;;;;;;;;;6179350;28;20238;-70
2022/03/14 00:04:58;;;;;;;12.13;7.53;;;;;;;;;;6180324;28;20887;-70
2022/03/14 00:08:21;;;;;;;9.50;8.10;;;;;;;;;;6181677;28;20238;-70
2022/03/14 00:11:41;;;;;;;8.70;7.40;;;;;;;;;;6177089;28;20230;-69
2022/03/14 00:15:08;;;;;;;8.27;7.27;;;;;;;;;;6180332;28;20564;-70
2022/03/14 00:18:30;;;;;;;9.07;6.97;;;;;;;;;;6183570;28;20662;-70
2022/03/14 00:21:52;;;;;;;7.07;6.40;;;;;;;;;;6180348;28;21770;-71
2022/03/14 00:25:16;;;;;;;7.40;6.67;;;;;;;;;;6181186;28;20487;-69
2022/03/14 00:28:37;;;;;;;8.00;7.27;;;;;;;;;;6178543;28;20233;-70
2022/03/14 00:32:00;;;;;;;8.77;7.77;;;;;;;;;;6182212;28;20229;-71
2022/03/14 00:35:21;;;;;;;8.83;7.77;;;;;;;;;;6187449;28;20674;-70
2022/03/14 00:38:43;;;;;;;8.13;7.03;;;;;;;;;;6188053;28;20234;-70
2022/03/14 00:42:05;;;;;;;9.13;7.03;;;;;;;;;;6185949;28;20345;-69
2022/03/14 00:45:26;;;;;;;7.97;6.97;;;;;;;;;;6186672;28;20230;-71
2022/03/14 00:48:47;;;;;;;9.37;8.47;;;;;;;;;;6185246;28;20585;-70
2022/03/14 00:52:08;;;;;;;8.43;6.60;;;;;;;;;;6184384;28;20245;-69
2022/03/14 00:55:31;;;;;;;7.20;6.50;;;;;;;;;;6186060;28;20238;-70
2022/03/14 00:58:52;;;;;;;7.53;6.70;;;;;;;;;;6185617;28;20332;-70
2022/03/14 01:02:14;;;;;;;8.33;7.50;;;;;;;;;;6181537;28;20229;-70
2022/03/14 01:05:35;;;;;;;9.23;8.17;;;;;;;;;;6183948;28;20226;-70
2022/03/14 01:09:01;;;;;;;9.50;7.60;;;;;;;;;;6181486;28;20249;-71
2022/03/14 01:12:23;;;;;;;9.43;7.23;;;;;;;;;;6183099;28;20238;-70
2022/03/14 01:15:44;;;;;;;7.03;6.33;;;;;;;;;;6188131;28;20348;-70
2022/03/14 01:19:05;;;;;;;8.30;7.40;;;;;;;;;;6181988;28;20230;-70
2022/03/14 01:22:26;;;;;;;8.40;7.57;;;;;;;;;;6183920;28;20230;-69
2022/03/14 01:25:47;;;;;;;8.83;7.00;;;;;;;;;;6183931;28;20218;-69
2022/03/14 01:29:10;;;;;;;8.70;7.20;;;;;;;;;;6183859;28;20231;-69
2022/03/14 01:32:31;;;;;;;8.40;7.20;;;;;;;;;;6185513;28;20237;-69
2022/03/14 01:35:51;;;;;;;7.97;7.17;;;;;;;;;;6184589;28;20257;-69
2022/03/14 01:39:12;;;;;;;8.63;7.27;;;;;;;;;;6179967;28;20226;-70
2022/03/14 01:42:33;;;;;;;7.73;7.03;;;;;;;;;;6184665;28;20548;-70
2022/03/14 01:45:57;;;;;;;8.47;6.90;;;;;;;;;;6183593;28;20237;-69
2022/03/14 01:49:19;;;;;;;8.63;7.83;;;;;;;;;;6184113;28;20618;-70
2022/03/14 01:52:41;;;;;;;7.23;6.33;;;;;;;;;;6187105;28;20229;-70
2022/03/14 01:56:02;;;;;;;9.40;7.57;;;;;;;;;;6185592;28;20249;-70
2022/03/14 01:59:23;;;;;;;11.07;8.03;;;;;;;;;;6172417;28;20237;-70
2022/03/14 02:02:47;;;;;;;9.70;7.67;;;;;;;;;;6181173;28;20230;-70
2022/03/14 02:06:08;;;;;;;7.53;6.73;;;;;;;;;;6182165;28;20253;-71
2022/03/14 02:09:29;;;;;;;8.27;7.43;;;;;;;;;;6178525;28;20241;-70
2022/03/14 02:12:50;;;;;;;11.70;8.13;;;;;;;;;;6170580;28;20253;-69
2022/03/14 02:16:11;;;;;;;9.67;7.47;;;;;;;;;;6178559;28;20336;-71
2022/03/14 02:19:34;;;;;;;8.03;7.20;;;;;;;;;;6180862;28;20305;-70
2022/03/14 02:22:56;;;;;;;7.63;6.87;;;;;;;;;;6183126;28;20320;-70
2022/03/14 02:26:18;;;;;;;8.17;7.37;;;;;;;;;;6179720;28;20210;-69
2022/03/14 02:29:39;;;;;;;7.30;6.60;;;;;;;;;;6183317;28;20541;-69
2022/03/14 02:33:00;;;;;;;7.53;6.83;;;;;;;;;;6178517;28;20229;-69
2022/03/14 02:36:20;;;;;;;7.90;7.20;;;;;;;;;;6179678;28;20230;-69
2022/03/14 02:39:43;;;;;;;10.87;6.90;;;;;;;;;;6179968;28;20238;-70
2022/03/14 02:43:03;;;;;;;8.33;7.03;;;;;;;;;;6178136;28;20540;-70
2022/03/14 02:46:24;;;;;;;10.40;7.73;;;;;;;;;;6177273;28;20257;-69
2022/03/14 02:49:45;;;;;;;8.77;6.60;;;;;;;;;;6179164;28;20237;-70
2022/03/14 02:53:05;;;;;;;8.43;7.30;;;;;;;;;;6180492;28;20230;-70
2022/03/14 02:56:27;;;;;;;9.17;7.67;;;;;;;;;;6181006;28;20234;-70
2022/03/14 02:59:49;;;;;;;9.77;8.27;;;;;;;;;;6178500;28;20316;-70
2022/03/14 03:03:11;;;;;;;10.67;7.63;;;;;;;;;;6177679;28;20232;-69
2022/03/14 03:06:33;;;;;;;8.67;7.33;;;;;;;;;;6180480;28;20225;-70
2022/03/14 03:09:53;;;;;;;8.73;7.53;;;;;;;;;;6173544;28;20238;-70
2022/03/14 03:13:16;;;;;;;8.03;7.03;;;;;;;;;;6175507;28;20321;-70
2022/03/14 03:16:37;;;;;;;9.17;7.60;;;;;;;;;;6176298;28;20237;-70
2022/03/14 03:19:58;;;;;;;9.70;8.73;;;;;;;;;;6176477;28;20258;-69
2022/03/14 03:23:19;;;;;;;8.40;7.57;;;;;;;;;;6177147;28;20229;-70
2022/03/14 03:26:40;;;;;;;8.13;7.07;;;;;;;;;;6179359;28;20312;-70
2022/03/14 03:30:04;;;;;;;10.27;8.77;;;;;;;;;;6176710;28;20230;-69
2022/03/14 03:33:25;;;;;;;10.37;7.83;;;;;;;;;;6177493;28;20229;-70
2022/03/14 03:36:46;;;;;;;9.13;8.17;;;;;;;;;;6172242;28;20237;-70
2022/03/14 03:40:07;;;;;;;8.57;7.53;;;;;;;;;;6172737;28;20229;-70
2022/03/14 03:43:28;;;;;;;9.37;8.47;;;;;;;;;;6177589;28;20817;-70
2022/03/14 03:46:51;;;;;;;9.67;7.67;;;;;;;;;;6175464;28;20279;-70
2022/03/14 03:50:12;;;;;;;9.27;8.27;;;;;;;;;;6176451;28;20233;-71
2022/03/14 03:53:32;;;;;;;10.17;8.30;;;;;;;;;;6180206;28;20678;-71
2022/03/14 03:56:53;;;;;;;9.20;8.07;;;;;;;;;;6174204;28;20261;-71
2022/03/14 04:00:15;;;;;;;10.00;8.97;;;;;;;;;;6176477;28;20273;-71
2022/03/14 04:03:38;;;;;;;8.70;7.30;;;;;;;;;;6177184;28;20226;-69
2022/03/14 04:07:00;;;;;;;8.73;7.93;;;;;;;;;;6181127;28;20344;-71
2022/03/14 04:10:21;;;;;;;10.73;9.67;;;;;;;;;;6175200;28;20312;-69
2022/03/14 04:13:42;;;;;;;11.67;8.17;;;;;;;;;;6180340;28;20564;-69
2022/03/14 04:17:03;;;;;;;11.10;9.30;;;;;;;;;;6179512;28;20611;-69
2022/03/14 04:20:25;;;;;;;10.73;8.20;;;;;;;;;;6181724;28;20233;-70
2022/03/14 04:23:46;;;;;;;30.37;27.20;;;;;;;;;;6174277;28;20233;-70
2022/03/14 04:27:08;;;;;;;23.93;21.50;;;;;;;;;;6182368;28;20230;-70
2022/03/14 04:30:29;;;;;;;13.23;11.87;;;;;;;;;;6178595;28;20317;-70
2022/03/14 04:33:50;;;;;;;11.00;9.90;;;;;;;;;;6179057;28;20253;-70
2022/03/14 04:37:13;;;;;;;11.27;8.77;;;;;;;;;;6178666;28;21366;-70
2022/03/14 04:40:37;;;;;;;11.27;10.13;;;;;;;;;;6179794;28;20233;-69
2022/03/14 04:43:58;;;;;;;11.40;9.33;;;;;;;;;;6179061;28;20234;-70
2022/03/14 04:47:20;;;;;;;11.47;10.17;;;;;;;;;;6178972;28;20217;-69
2022/03/14 04:50:41;;;;;;;11.97;10.20;;;;;;;;;;6173164;28;21282;-70
2022/03/14 04:54:03;;;;;;;12.00;10.70;;;;;;;;;;6177073;28;20233;-69
2022/03/14 04:57:25;;;;;;;9.57;8.57;;;;;;;;;;6175170;28;20238;-71
2022/03/14 05:00:47;;;;;;;12.27;9.70;;;;;;;;;;6146307;28;20991;-70
2022/03/14 05:04:09;;;;;;;9.90;8.87;;;;;;;;;;6172436;28;20353;-71
2022/03/14 05:07:30;;;;;;;10.70;8.87;;;;;;;;;;6173001;28;20226;-70
2022/03/14 05:10:52;;;;;;;36.83;32.67;;;;;;;;;;6176160;28;20238;-70
2022/03/14 05:14:14;;;;;;;27.70;24.33;;;;;;;;;;6175071;28;20559;-69
2022/03/14 05:17:36;;;;;;;28.23;24.67;;;;;;;;;;6174546;28;20234;-70
2022/03/14 05:20:57;;;;;;;15.07;13.50;;;;;;;;;;6178002;28;20322;-70
2022/03/14 05:24:17;;;;;;;14.53;11.17;;;;;;;;;;6181696;28;20490;-69
2022/03/14 05:27:39;;;;;;;11.80;10.23;;;;;;;;;;6178867;28;20230;-70
2022/03/14 05:31:00;;;;;;;15.27;11.20;;;;;;;;;;6180024;28;20276;-70
2022/03/14 05:34:21;;;;;;;10.03;8.43;;;;;;;;;;6178819;28;20498;-69
2022/03/14 05:37:42;;;;;;;11.33;9.37;;;;;;;;;;6181899;28;20234;-70
2022/03/14 05:41:03;;;;;;;10.37;9.03;;;;;;;;;;6182124;28;20226;-70
2022/03/14 05:44:26;;;;;;;10.70;9.70;;;;;;;;;;6178878;28;20230;-69
2022/03/14 05:47:47;;;;;;;12.57;9.77;;;;;;;;;;6181019;28;20234;-70
2022/03/14 05:51:08;;;;;;;10.37;9.37;;;;;;;;;;6180613;28;20237;-69
2022/03/14 05:54:29;;;;;;;12.33;11.13;;;;;;;;;;6178537;28;20234;-69
2022/03/14 05:57:56;;;;;;;39.07;34.97;;;;;;;;;;6176313;28;20241;-70
2022/03/14 06:01:18;;;;;;;16.57;14.43;;;;;;;;;;6179760;28;20233;-68
2022/03/14 06:04:40;;;;;;;12.33;9.97;;;;;;;;;;6181713;28;20230;-70
2022/03/14 06:08:01;;;;;;;12.77;11.10;;;;;;;;;;6185649;28;20234;-69
2022/03/14 06:11:23;;;;;;;11.90;10.00;;;;;;;;;;6186832;28;20226;-69
2022/03/14 06:14:44;;;;;;;17.97;16.17;;;;;;;;;;6182100;28;20226;-71
2022/03/14 06:18:06;;;;;;;13.27;11.20;;;;;;;;;;6176903;28;20245;-70
2022/03/14 06:21:27;;;;;;;12.50;10.70;;;;;;;;;;6181852;28;20225;-70
2022/03/14 06:24:50;;;;;;;11.97;10.77;;;;;;;;;;6178942;28;20226;-70
2022/03/14 06:28:11;;;;;;;11.03;9.47;;;;;;;;;;6183729;28;20234;-70
2022/03/14 06:31:32;;;;;;;13.13;11.23;;;;;;;;;;6178832;28;20230;-70
2022/03/14 06:34:54;;;;;;;12.33;9.80;;;;;;;;;;6183506;28;20234;-67
2022/03/14 06:38:15;;;;;;;16.40;10.27;;;;;;;;;;6173491;28;20276;-69
2022/03/14 06:41:39;;;;;;;13.53;11.27;;;;;;;;;;6176075;28;20226;-69
2022/03/14 06:45:02;;;;;;;14.77;10.43;;;;;;;;;;6178011;28;20336;-71
2022/03/14 06:48:23;;;;;;;16.27;11.30;;;;;;;;;;6179424;28;20261;-71
2022/03/14 06:51:45;;;;;;;17.53;11.27;;;;;;;;;;6177976;28;20223;-76
2022/03/14 06:55:06;;;;;;;11.87;10.00;;;;;;;;;;6173063;28;20740;-72
2022/03/14 06:58:27;;;;;;;17.37;11.13;;;;;;;;;;6178113;28;21874;-71
2022/03/14 07:01:48;;;;;;;13.40;9.67;;;;;;;;;;6174835;28;20230;-71
2022/03/14 07:05:13;;;;;;;11.67;10.17;;;;;;;;;;6156391;28;20234;-68
2022/03/14 07:08:35;;;;;;;13.33;11.50;;;;;;;;;;6180577;28;20622;-73
2022/03/14 07:11:56;;;;;;;14.30;10.23;;;;;;;;;;6175893;28;20230;-74
2022/03/14 07:15:20;;;;;;;13.37;11.10;;;;;;;;;;6179615;28;20225;-75
2022/03/14 07:18:41;;;;;;;14.33;10.50;;;;;;;;;;6179061;28;20237;-74
2022/03/14 07:22:04;;;;;;;12.73;10.10;;;;;;;;;;6179447;28;20230;-72
2022/03/14 07:25:28;;;;;;;13.83;9.50;;;;;;;;;;6176794;28;20608;-75
2022/03/14 07:28:49;;;;;;;18.03;9.70;;;;;;;;;;6179822;28;20317;-77
2022/03/14 07:32:11;;;;;;;14.27;11.43;;;;;;;;;;6164369;28;20222;-75
2022/03/14 07:35:32;;;;;;;12.97;9.77;;;;;;;;;;6179696;28;20238;-74
2022/03/14 07:38:55;;;;;;;13.60;11.30;;;;;;;;;;6181942;28;20234;-76
2022/03/14 07:42:17;;;;;;;13.77;11.43;;;;;;;;;;6181171;28;20230;-75
2022/03/14 07:45:38;;;;;;;17.63;11.07;;;;;;;;;;6160176;28;20238;-73
2022/03/14 07:49:01;;;;;;;12.50;10.63;;;;;;;;;;6168528;28;20249;-73
2022/03/14 07:52:22;;;;;;;11.07;10.07;;;;;;;;;;6171109;28;20579;-70
2022/03/14 07:55:43;;;;;;;12.53;11.10;;;;;;;;;;6175630;28;20234;-74
2022/03/14 07:59:05;;;;;;;13.60;11.50;;;;;;;;;;6183414;28;20528;-74
2022/03/14 08:02:28;;;;;;;14.47;11.53;;;;;;;;;;6177519;28;20312;-71
2022/03/14 08:05:53;;;;;;;13.10;10.90;;;;;;;;;;6178576;28;20321;-70
2022/03/14 08:09:14;;;;;;;15.30;12.17;;;;;;;;;;6177688;28;20233;-71
2022/03/14 08:12:43;;;;;;;12.67;11.30;;;;;;;;;;6175343;28;20234;-73
2022/03/14 08:16:06;;;;;;;18.80;12.17;;;;;;;;;;6178085;28;20233;-71
2022/03/14 08:19:27;;;;;;;11.23;10.13;;;;;;;;;;6176210;28;20233;-75
2022/03/14 08:22:49;;;;;;;12.17;10.93;;;;;;;;;;6171787;28;20233;-70
2022/03/14 08:26:10;;;;;;;14.63;10.57;;;;;;;;;;6168014;28;20249;-70
2022/03/14 08:29:32;;;;;;;12.53;10.53;;;;;;;;;;6174606;28;20238;-70
2022/03/14 08:32:56;;;;;;;12.70;10.93;;;;;;;;;;6175980;28;20627;-71
2022/03/14 08:36:20;;;;;;;16.50;10.47;;;;;;;;;;6176172;28;20679;-70
2022/03/14 08:39:41;;;;;;;13.17;11.80;;;;;;;;;;6177863;28;20238;-75
2022/03/14 08:43:02;;;;;;;16.27;12.23;;;;;;;;;;6182976;28;20225;-74
2022/03/14 08:46:23;;;;;;;17.40;12.07;;;;;;;;;;6183385;28;20237;-67
2022/03/14 08:49:45;;;;;;;13.40;11.43;;;;;;;;;;6178129;28;20229;-67
2022/03/14 08:53:06;;;;;;;14.07;11.70;;;;;;;;;;6181027;28;20242;-68
2022/03/14 08:56:27;;;;;;;13.40;11.43;;;;;;;;;;6181992;28;20302;-71
2022/03/14 08:59:47;;;;;;;14.20;11.17;;;;;;;;;;6184674;28;20242;-73
2022/03/14 09:03:08;;;;;;;15.77;12.20;;;;;;;;;;6177483;28;20238;-73
2022/03/14 09:06:31;;;;;;;13.37;11.97;;;;;;;;;;6180643;28;20967;-71
2022/03/14 09:09:51;;;;;;;14.33;11.10;;;;;;;;;;6183726;28;20659;-70
2022/03/14 09:13:13;;;;;;;14.70;11.30;;;;;;;;;;6186125;28;20241;-69
2022/03/14 09:16:35;;;;;;;15.03;12.17;;;;;;;;;;6186844;28;20856;-74
2022/03/14 09:19:56;;;;;;;12.23;11.03;;;;;;;;;;6188388;28;20230;-68
2022/03/14 09:23:20;;;;;;;16.63;12.87;;;;;;;;;;6183510;28;20234;-71
2022/03/14 09:26:42;;;;;;;12.50;11.20;;;;;;;;;;6180826;28;20550;-71
2022/03/14 09:30:03;;;;;;;11.73;10.53;;;;;;;;;;6181917;28;20612;-71
2022/03/14 09:33:24;;;;;;;15.33;13.73;;;;;;;;;;6181922;28;20261;-75
2022/03/14 09:36:45;;;;;;;13.97;12.17;;;;;;;;;;6171668;28;20230;-75
2022/03/14 09:40:10;;;;;;;13.63;12.20;;;;;;;;;;6183430;28;20258;-74
2022/03/14 09:43:32;;;;;;;14.80;10.50;;;;;;;;;;6177342;28;20237;-76
2022/03/14 09:46:54;;;;;;;15.50;11.60;;;;;;;;;;6187697;28;20226;-77
2022/03/14 09:50:21;;;;;;;14.30;10.77;;;;;;;;;;6171600;28;20340;-70
2022/03/14 09:53:42;;;;;;;12.17;10.93;;;;;;;;;;6178022;28;20230;-70
2022/03/14 09:57:05;;;;;;;12.77;11.30;;;;;;;;;;6177266;28;20322;-71
2022/03/14 10:00:25;;;;;;;14.17;11.63;;;;;;;;;;6181517;28;20229;-69
2022/03/14 10:03:46;;;;;;;13.07;11.43;;;;;;;;;;6177347;28;20230;-71
2022/03/14 10:07:07;;;;;;;14.43;11.80;;;;;;;;;;6178631;28;20262;-71
2022/03/14 10:10:28;;;;;;;13.73;11.07;;;;;;;;;;6183363;28;20234;-72
2022/03/14 10:13:50;;;;;;;15.10;11.20;;;;;;;;;;6183455;28;20233;-71
2022/03/14 10:17:11;;;;;;;12.50;11.00;;;;;;;;;;6181029;28;20265;-75
2022/03/14 10:20:32;;;;;;;13.70;10.50;;;;;;;;;;6181616;28;20589;-71
2022/03/14 10:23:52;;;;;;;10.90;9.87;;;;;;;;;;6181663;28;20316;-71
2022/03/14 10:27:18;;;;;;;12.67;10.33;;;;;;;;;;6185477;28;20639;-73
2022/03/14 10:30:40;;;;;;;12.13;10.87;;;;;;;;;;6182459;28;20237;-71
2022/03/14 10:34:04;;;;;;;13.90;10.53;;;;;;;;;;6174781;28;20241;-70
2022/03/14 10:37:28;;;;;;;15.90;11.53;;;;;;;;;;6175468;28;20728;-71
2022/03/14 10:40:50;;;;;;;22.23;12.30;;;;;;;;;;6181093;28;20229;-69
2022/03/14 10:44:12;;;;;;;13.77;11.30;;;;;;;;;;6177069;28;20258;-71
2022/03/14 10:47:34;;;;;;;16.47;12.37;;;;;;;;;;6177907;28;21785;-74
2022/03/14 10:51:03;;;;;;;14.27;12.77;;;;;;;;;;6181597;28;20349;-71
2022/03/14 10:54:24;;;;;;;13.07;11.77;;;;;;;;;;6182699;28;20312;-68
2022/03/14 10:57:47;;;;;;;15.93;12.00;;;;;;;;;;6173032;28;20233;-72
2022/03/14 11:01:09;;;;;;;12.83;10.37;;;;;;;;;;6181394;28;20230;-70
2022/03/14 11:04:40;;;;;;;16.30;11.90;;;;;;;;;;6181573;28;20234;-71
2022/03/14 11:08:00;;;;;;;12.83;10.93;;;;;;;;;;6179543;28;20233;-69
2022/03/14 11:11:22;;;;;;;12.93;10.87;;;;;;;;;;6180174;28;20568;-71
2022/03/14 11:14:51;;;;;;;15.40;10.53;;;;;;;;;;6167981;28;20222;-72
2022/03/14 11:18:13;;;;;;;13.33;10.40;;;;;;;;;;6172300;28;20257;-71
2022/03/14 11:21:36;;;;;;;14.53;11.20;;;;;;;;;;6173771;28;20513;-70
2022/03/14 11:24:58;;;;;;;12.97;10.03;;;;;;;;;;6169348;28;20836;-70
2022/03/14 11:28:21;;;;;;;17.90;11.70;;;;;;;;;;6180992;28;20233;-71
2022/03/14 11:31:47;;;;;;;13.30;11.67;;;;;;;;;;6178613;28;20233;-72
2022/03/14 11:35:09;;;;;;;12.90;9.93;;;;;;;;;;6179617;28;20234;-71
2022/03/14 11:38:31;;;;;;;16.07;9.77;;;;;;;;;;6176493;28;20229;-71
2022/03/14 11:41:53;;;;;;;11.93;10.33;;;;;;;;;;6167806;28;20269;-70
2022/03/14 11:45:15;;;;;;;11.87;10.37;;;;;;;;;;6173731;28;20271;-69
2022/03/14 11:48:37;;;;;;;11.90;8.50;;;;;;;;;;6173107;28;20866;-74
2022/03/14 11:52:09;;;;;;;14.40;9.57;;;;;;;;;;6179382;28;20226;-72
2022/03/14 11:55:31;;;;;;;9.20;8.27;;;;;;;;;;6183296;28;20563;-70
2022/03/14 11:58:56;;;;;;;10.17;9.13;;;;;;;;;;6172175;28;20233;-71
2022/03/14 12:02:40;;;;;;;12.37;9.93;;;;;;;;;;6172966;28;20328;-71
2022/03/14 12:06:01;;;;;;;17.30;9.77;;;;;;;;;;6177699;28;20229;-70
2022/03/14 12:09:45;;;;;;;10.53;9.33;;;;;;;;;;6176624;28;20238;-72
2022/03/14 12:13:08;;;;;;;10.07;9.13;;;;;;;;;;6176675;28;20620;-71
2022/03/14 12:16:39;;;;;;;10.60;9.60;;;;;;;;;;6176278;28;20225;-72
2022/03/14 12:20:03;;;;;;;11.97;9.67;;;;;;;;;;6176371;28;20244;-71
2022/03/14 12:23:26;;;;;;;10.50;9.50;;;;;;;;;;6167203;28;20514;-71
2022/03/14 12:26:47;;;;;;;12.40;9.23;;;;;;;;;;6172894;28;20250;-72
2022/03/14 12:30:32;;;;;;;16.27;10.63;;;;;;;;;;6157628;28;20614;-70
2022/03/14 12:33:53;;;;;;;12.17;10.37;;;;;;;;;;6164805;28;21057;-70
2022/03/14 12:37:24;;;;;;;12.37;11.13;;;;;;;;;;6175751;28;20241;-71
2022/03/14 12:40:46;;;;;;;14.03;12.63;;;;;;;;;;6176907;28;20229;-70
2022/03/14 12:44:16;;;;;;;14.20;12.20;;;;;;;;;;6174567;28;20261;-69
2022/03/14 12:47:41;;;;;;;14.80;12.30;;;;;;;;;;6175092;28;20248;-69
2022/03/14 12:51:07;;;;;;;15.67;10.43;;;;;;;;;;6174070;28;20261;-68
2022/03/14 12:54:32;;;;;;;16.43;13.70;;;;;;;;;;6165305;28;20270;-70
2022/03/14 12:57:53;;;;;;;15.67;12.30;;;;;;;;;;6173697;28;20234;-68
2022/03/14 13:01:14;;;;;;;15.23;12.27;;;;;;;;;;6147585;28;20265;-70
2022/03/14 13:04:37;;;;;;;14.27;12.77;;;;;;;;;;6168032;28;20238;-71
2022/03/14 13:08:02;;;;;;;16.13;13.63;;;;;;;;;;6170358;28;20249;-73
2022/03/14 13:11:32;;;;;;;15.23;13.70;;;;;;;;;;6175221;28;20234;-70
2022/03/14 13:15:03;;;;;;;13.97;12.77;;;;;;;;;;6177477;28;20226;-70
2022/03/14 13:18:23;;;;;;;16.67;13.80;;;;;;;;;;6173924;28;20312;-68
2022/03/14 13:21:46;;;;;;;15.80;14.20;;;;;;;;;;6173709;28;20719;-69
2022/03/14 13:25:08;;;;;;;15.10;13.03;;;;;;;;;;6173679;28;20234;-70
2022/03/14 13:28:30;;;;;;;15.73;14.03;;;;;;;;;;6173144;28;20234;-71
2022/03/14 13:31:51;;;;;;;15.10;13.27;;;;;;;;;;6174494;28;20245;-73
2022/03/14 13:35:13;;;;;;;16.73;15.10;;;;;;;;;;6170591;28;20234;-72
2022/03/14 13:38:38;;;;;;;16.43;14.83;;;;;;;;;;6176950;28;20364;-69
2022/03/14 13:42:00;;;;;;;16.30;14.73;;;;;;;;;;6176873;28;20234;-71
2022/03/14 13:45:25;;;;;;;15.90;14.23;;;;;;;;;;6177071;28;20316;-70
2022/03/14 13:48:50;;;;;;;16.67;15.07;;;;;;;;;;6173936;28;20254;-69
2022/03/14 13:52:13;;;;;;;15.37;13.67;;;;;;;;;;6176330;28;20325;-70
2022/03/14 13:55:35;;;;;;;14.63;13.23;;;;;;;;;;6170764;28;20234;-70
2022/03/14 13:58:56;;;;;;;15.30;13.70;;;;;;;;;;6169498;28;20253;-71
2022/03/14 14:02:20;;;;;;;16.60;14.93;;;;;;;;;;6170703;28;20320;-71
2022/03/14 14:05:42;;;;;;;17.73;15.87;;;;;;;;;;6174857;28;20241;-68
2022/03/14 14:09:20;;;;;;;17.53;15.83;;;;;;;;;;6174324;28;20597;-73
2022/03/14 14:12:56;;;;;;;16.20;14.47;;;;;;;;;;6172555;28;20348;-67
2022/03/14 14:16:18;;;;;;;17.63;16.07;;;;;;;;;;6171908;28;20237;-70
2022/03/14 14:19:59;;;;;;;17.80;15.20;;;;;;;;;;6170889;28;20232;-69
2022/03/14 14:23:21;;;;;;;15.97;14.57;;;;;;;;;;6170470;28;20340;-73
2022/03/14 14:26:43;;;;;;;16.90;15.40;;;;;;;;;;6173192;28;20226;-71
2022/03/14 14:30:07;;;;;;;17.50;15.93;;;;;;;;;;6167347;28;20230;-71
2022/03/14 14:33:31;;;;;;;16.37;14.83;;;;;;;;;;6166776;28;20234;-71
2022/03/14 14:36:52;;;;;;;19.47;17.50;;;;;;;;;;6166449;28;20272;-70
2022/03/14 14:40:13;;;;;;;17.93;15.07;;;;;;;;;;6167127;28;20237;-70
2022/03/14 14:43:34;;;;;;;15.83;14.37;;;;;;;;;;6172723;28;20226;-71
2022/03/14 14:46:56;;;;;;;13.13;11.83;;;;;;;;;;6170306;28;21745;-72
2022/03/14 14:50:18;;;;;;;11.63;10.53;;;;;;;;;;6168699;28;20286;-69
2022/03/14 14:53:41;;;;;;;11.53;10.33;;;;;;;;;;6168502;28;20254;-68
2022/03/14 14:57:05;;;;;;;11.63;10.60;;;;;;;;;;6165840;28;20237;-70
2022/03/14 15:00:26;;;;;;;12.77;11.67;;;;;;;;;;6162647;28;20607;-73
2022/03/14 15:03:49;;;;;;;12.03;10.93;;;;;;;;;;6167057;28;20237;-72
2022/03/14 15:07:09;;;;;;;12.57;11.27;;;;;;;;;;6175109;28;20234;-73
2022/03/14 15:10:30;;;;;;;10.40;9.40;;;;;;;;;;6174489;28;20242;-73
2022/03/14 15:13:51;;;;;;;10.30;9.40;;;;;;;;;;6175272;28;20530;-72
2022/03/14 15:17:12;;;;;;;11.27;10.30;;;;;;;;;;6180741;28;20323;-72
2022/03/14 15:20:35;;;;;;;12.30;10.93;;;;;;;;;;6183412;28;20234;-73
2022/03/14 15:23:56;;;;;;;12.50;11.30;;;;;;;;;;6175670;28;20563;-72
2022/03/14 15:27:16;;;;;;;13.73;12.50;;;;;;;;;;6176755;28;20321;-72
2022/03/14 15:30:42;;;;;;;11.10;10.10;;;;;;;;;;6170595;28;20262;-73
2022/03/14 15:34:03;;;;;;;10.83;9.93;;;;;;;;;;6171725;28;20250;-73
2022/03/14 15:37:26;;;;;;;10.10;9.10;;;;;;;;;;6171786;28;20552;-72
2022/03/14 15:40:47;;;;;;;9.90;9.10;;;;;;;;;;6170400;28;20226;-72
2022/03/14 15:44:08;;;;;;;10.73;9.73;;;;;;;;;;6171038;28;20234;-73
2022/03/14 15:47:31;;;;;;;10.27;9.37;;;;;;;;;;6169105;28;20233;-72
2022/03/14 15:50:52;;;;;;;11.03;10.07;;;;;;;;;;6175637;28;20223;-72
2022/03/14 15:54:14;;;;;;;13.10;11.90;;;;;;;;;;6168619;28;20233;-72
2022/03/14 15:57:35;;;;;;;12.77;11.63;;;;;;;;;;6169821;28;20561;-72
2022/03/14 16:00:56;;;;;;;12.70;11.57;;;;;;;;;;6161887;28;20229;-72
2022/03/14 16:04:17;;;;;;;11.57;10.63;;;;;;;;;;6170806;28;20234;-74
2022/03/14 16:07:40;;;;;;;16.30;14.90;;;;;;;;;;6171705;28;20628;-74
2022/03/14 16:11:02;;;;;;;13.40;12.13;;;;;;;;;;6170939;28;20226;-72
2022/03/14 16:14:23;;;;;;;12.70;11.57;;;;;;;;;;6165515;28;20242;-71
2022/03/14 16:17:45;;;;;;;15.90;14.43;;;;;;;;;;6167630;28;20648;-73
2022/03/14 16:21:06;;;;;;;14.00;12.80;;;;;;;;;;6168030;28;20250;-71
2022/03/14 16:24:27;;;;;;;14.67;13.33;;;;;;;;;;6163321;28;20241;-71
2022/03/14 16:27:49;;;;;;;15.83;14.40;;;;;;;;;;6165552;28;20229;-72
2022/03/14 16:31:11;;;;;;;16.40;15.00;;;;;;;;;;6163174;28;20771;-71
2022/03/14 16:34:32;;;;;;;17.47;15.90;;;;;;;;;;6164914;28;20877;-71
2022/03/14 16:37:53;;;;;;;15.87;14.57;;;;;;;;;;6165696;28;20527;-71
2022/03/14 16:41:15;;;;;;;17.47;15.97;;;;;;;;;;6161810;28;20893;-71
2022/03/14 16:44:37;;;;;;;17.27;15.77;;;;;;;;;;6168133;28;23057;-71
2022/03/14 16:47:58;;;;;;;14.10;12.90;;;;;;;;;;6161849;28;20349;-72
2022/03/14 16:51:19;;;;;;;19.03;17.23;;;;;;;;;;6172099;28;20253;-72
2022/03/14 16:54:40;;;;;;;16.17;14.73;;;;;;;;;;6166996;28;20226;-72
2022/03/14 16:58:01;;;;;;;16.80;15.20;;;;;;;;;;6167051;28;20222;-72
2022/03/14 17:01:23;;;;;;;16.57;15.00;;;;;;;;;;6162895;28;20226;-70
2022/03/14 17:04:44;;;;;;;14.07;12.90;;;;;;;;;;6165625;28;20323;-72
2022/03/14 17:08:05;;;;;;;13.40;12.20;;;;;;;;;;6163120;28;20242;-70
2022/03/14 17:11:26;;;;;;;13.87;12.60;;;;;;;;;;6164739;28;20313;-72
2022/03/14 17:14:47;;;;;;;14.90;13.60;;;;;;;;;;6151157;28;20659;-71
2022/03/14 17:18:10;;;;;;;14.23;13.03;;;;;;;;;;6171093;28;20265;-73
2022/03/14 17:21:33;;;;;;;15.17;13.87;;;;;;;;;;6174659;28;20241;-72
2022/03/14 17:24:54;;;;;;;14.30;12.87;;;;;;;;;;6168522;28;20233;-71
2022/03/14 17:28:16;;;;;;;16.60;15.13;;;;;;;;;;6170415;28;20234;-72
2022/03/14 17:31:40;;;;;;;15.17;13.87;;;;;;;;;;6171302;28;20226;-72
2022/03/14 17:35:03;;;;;;;15.60;14.20;;;;;;;;;;6181605;28;20234;-72
2022/03/14 17:38:28;;;;;;;14.10;12.80;;;;;;;;;;6177668;28;20230;-73
2022/03/14 17:41:50;;;;;;;15.30;13.80;;;;;;;;;;6166092;28;20627;-70
2022/03/14 17:45:12;;;;;;;13.37;12.33;;;;;;;;;;6176796;28;20937;-73
2022/03/14 17:48:33;;;;;;;14.43;13.23;;;;;;;;;;6178101;28;20261;-72
2022/03/14 17:51:55;;;;;;;15.20;13.80;;;;;;;;;;6172340;28;20234;-72
2022/03/14 17:55:16;;;;;;;15.30;14.00;;;;;;;;;;6178446;28;20245;-73
2022/03/14 17:58:37;;;;;;;15.47;14.17;;;;;;;;;;6171900;28;20230;-71
2022/03/14 18:02:03;;;;;;;15.50;13.90;;;;;;;;;;6178046;28;20643;-71
2022/03/14 18:05:24;;;;;;;15.43;14.13;;;;;;;;;;6178415;28;20230;-71
2022/03/14 18:08:46;;;;;;;16.23;14.80;;;;;;;;;;6174012;28;20229;-71
2022/03/14 18:12:08;;;;;;;15.37;13.97;;;;;;;;;;6178019;28;20222;-71
2022/03/14 18:15:30;;;;;;;16.87;15.27;;;;;;;;;;6173791;28;20233;-71
2022/03/14 18:18:51;;;;;;;15.13;13.60;;;;;;;;;;6174378;28;20238;-71
2022/03/14 18:22:11;;;;;;;17.43;15.70;;;;;;;;;;6179026;28;20671;-71
2022/03/14 18:25:33;;;;;;;15.20;13.73;;;;;;;;;;6172231;28;20225;-73
2022/03/14 18:28:55;;;;;;;15.00;13.60;;;;;;;;;;6171079;28;20234;-73
2022/03/14 18:32:16;;;;;;;15.33;13.93;;;;;;;;;;6175148;28;20824;-73
2022/03/14 18:35:39;;;;;;;15.87;14.40;;;;;;;;;;6181304;28;20253;-73
2022/03/14 18:39:01;;;;;;;15.93;14.43;;;;;;;;;;6175735;28;20245;-73
2022/03/14 18:42:23;;;;;;;14.60;13.20;;;;;;;;;;6183776;28;20288;-74
2022/03/14 18:45:45;;;;;;;15.97;14.60;;;;;;;;;;6178280;28;20230;-73
2022/03/14 18:49:05;;;;;;;17.33;15.63;;;;;;;;;;6177867;28;20519;-74
2022/03/14 18:52:26;;;;;;;17.63;16.03;;;;;;;;;;6181412;28;20214;-72
2022/03/14 18:55:48;;;;;;;16.53;14.87;;;;;;;;;;6179899;28;20613;-72
2022/03/14 18:59:13;;;;;;;17.87;16.27;;;;;;;;;;6183821;28;20513;-73
2022/03/14 19:02:35;;;;;;;16.77;15.30;;;;;;;;;;6181420;28;20238;-73
2022/03/14 19:05:56;;;;;;;18.60;16.70;;;;;;;;;;6177057;28;20309;-73
2022/03/14 19:09:16;;;;;;;18.47;16.87;;;;;;;;;;6167378;28;20234;-74
2022/03/14 19:12:37;;;;;;;18.70;17.10;;;;;;;;;;6181639;28;20222;-72
2022/03/14 19:16:02;;;;;;;18.80;17.17;;;;;;;;;;6182714;28;20492;-73
2022/03/14 19:19:23;;;;;;;18.23;16.63;;;;;;;;;;6178174;28;20245;-72
2022/03/14 19:22:45;;;;;;;17.90;16.17;;;;;;;;;;6177456;28;20243;-73
2022/03/14 19:26:07;;;;;;;19.00;17.20;;;;;;;;;;6180864;28;20663;-73
2022/03/14 19:29:28;;;;;;;20.03;18.27;;;;;;;;;;6165240;28;20222;-73
2022/03/14 19:32:51;;;;;;;18.67;16.97;;;;;;;;;;6170833;28;20502;-72
2022/03/14 19:36:12;;;;;;;19.00;17.20;;;;;;;;;;6177748;28;20635;-73
2022/03/14 19:39:33;;;;;;;16.87;15.30;;;;;;;;;;6173929;28;20238;-72
2022/03/14 19:42:54;;;;;;;16.17;14.77;;;;;;;;;;6173678;28;20238;-73
2022/03/14 19:46:16;;;;;;;17.07;15.40;;;;;;;;;;6180149;28;20234;-73